createdAt,value
2022-12-24T00:00:04.048Z,542.00
2022-12-24T00:00:34.108Z,544.00
2022-12-24T00:01:04.112Z,545.00
2022-12-24T00:01:34.104Z,546.00
2022-12-24T00:02:04.382Z,544.00
2022-12-24T00:02:34.449Z,544.00
2022-12-24T00:03:04.519Z,545.00
2022-12-24T00:03:34.762Z,545.00
2022-12-24T00:04:04.523Z,545.00
2022-12-24T00:04:34.524Z,545.00
2022-12-24T00:05:04.639Z,545.00
2022-12-24T00:05:34.641Z,545.00
2022-12-24T00:06:04.638Z,544.00
2022-12-24T00:06:34.762Z,545.00
2022-12-24T00:07:04.748Z,546.00
2022-12-24T00:07:34.750Z,544.00
2022-12-24T00:08:04.876Z,544.00
2022-12-24T00:08:34.989Z,544.00
2022-12-24T00:09:05.105Z,544.00
2022-12-24T00:09:35.249Z,543.00
2022-12-24T00:10:05.314Z,543.00
2022-12-24T00:10:35.400Z,542.00
2022-12-24T00:11:05.496Z,543.00
2022-12-24T00:11:35.582Z,543.00
2022-12-24T00:12:05.658Z,543.00
2022-12-24T00:12:35.740Z,542.00
2022-12-24T00:13:05.824Z,542.00
2022-12-24T00:13:35.892Z,542.00
2022-12-24T00:14:05.990Z,543.00
2022-12-24T00:14:36.075Z,543.00
2022-12-24T00:15:06.140Z,544.00
2022-12-24T00:15:36.222Z,545.00
2022-12-24T00:16:06.310Z,545.00
2022-12-24T00:16:36.453Z,546.00
2022-12-24T00:17:06.522Z,545.00
2022-12-24T00:17:36.484Z,545.00
2022-12-24T00:18:06.578Z,546.00
2022-12-24T00:18:43.345Z,544.00
2022-12-24T00:19:06.762Z,543.00
2022-12-24T00:19:36.856Z,544.00
2022-12-24T00:20:06.984Z,545.00
2022-12-24T00:20:36.969Z,545.00
2022-12-24T00:21:06.959Z,546.00
2022-12-24T00:21:37.075Z,545.00
2022-12-24T00:22:07.197Z,545.00
2022-12-24T00:22:37.193Z,543.00
2022-12-24T00:23:07.315Z,543.00
2022-12-24T00:23:37.457Z,544.00
2022-12-24T00:24:07.472Z,543.00
2022-12-24T00:24:37.491Z,544.00
2022-12-24T00:25:07.585Z,544.00
2022-12-24T00:25:37.578Z,544.00
2022-12-24T00:26:07.579Z,544.00
2022-12-24T00:26:37.705Z,544.00
2022-12-24T00:27:07.812Z,544.00
2022-12-24T00:27:37.814Z,545.00
2022-12-24T00:28:07.960Z,545.00
2022-12-24T00:28:37.972Z,545.00
2022-12-24T00:29:08.084Z,545.00
2022-12-24T00:29:38.196Z,546.00
2022-12-24T00:30:08.310Z,544.00
2022-12-24T00:30:38.388Z,545.00
2022-12-24T00:31:08.468Z,547.00
2022-12-24T00:31:38.497Z,550.00
2022-12-24T00:32:08.492Z,552.00
2022-12-24T00:32:38.613Z,551.00
2022-12-24T00:33:08.726Z,550.00
2022-12-24T00:33:38.726Z,551.00
2022-12-24T00:34:08.713Z,552.00
2022-12-24T00:34:38.829Z,553.00
2022-12-24T00:35:08.948Z,552.00
2022-12-24T00:35:38.944Z,553.00
2022-12-24T00:36:08.959Z,554.00
2022-12-24T00:36:38.937Z,555.00
2022-12-24T00:37:09.055Z,553.00
2022-12-24T00:37:39.167Z,552.00
2022-12-24T00:38:09.175Z,553.00
2022-12-24T00:38:39.175Z,551.00
2022-12-24T00:39:09.281Z,550.00
2022-12-24T00:39:39.271Z,549.00
2022-12-24T00:40:09.446Z,548.00
2022-12-24T00:40:39.413Z,547.00
2022-12-24T00:41:09.532Z,546.00
2022-12-24T00:41:39.524Z,545.00
2022-12-24T00:42:09.653Z,546.00
2022-12-24T00:42:39.758Z,548.00
2022-12-24T00:43:09.770Z,548.00
2022-12-24T00:43:39.761Z,548.00
2022-12-24T00:44:09.922Z,550.00
2022-12-24T00:44:39.913Z,549.00
2022-12-24T00:45:10.029Z,550.00
2022-12-24T00:45:40.145Z,548.00
2022-12-24T00:46:10.305Z,547.00
2022-12-24T00:46:40.306Z,547.00
2022-12-24T00:47:12.281Z,546.00
2022-12-24T00:47:40.262Z,547.00
2022-12-24T00:48:10.385Z,545.00
2022-12-24T00:48:40.376Z,544.00
2022-12-24T00:49:10.373Z,543.00
2022-12-24T00:49:40.374Z,543.00
2022-12-24T00:50:10.488Z,542.00
2022-12-24T00:50:40.505Z,541.00
2022-12-24T00:51:10.540Z,538.00
2022-12-24T00:51:40.565Z,537.00
2022-12-24T00:52:10.586Z,540.00
2022-12-24T00:52:40.577Z,542.00
2022-12-24T00:53:10.703Z,542.00
2022-12-24T00:53:40.692Z,541.00
2022-12-24T00:54:10.829Z,541.00
2022-12-24T00:54:40.933Z,542.00
2022-12-24T00:55:10.952Z,543.00
2022-12-24T00:55:40.925Z,544.00
2022-12-24T00:56:11.089Z,543.00
2022-12-24T00:56:41.084Z,543.00
2022-12-24T00:57:11.193Z,543.00
2022-12-24T00:57:41.309Z,544.00
2022-12-24T00:58:11.437Z,546.00
2022-12-24T00:58:41.432Z,545.00
2022-12-24T00:59:11.537Z,545.00
2022-12-24T00:59:41.656Z,545.00
2022-12-24T01:00:11.661Z,545.00
2022-12-24T01:00:41.639Z,546.00
2022-12-24T01:01:11.865Z,547.00
2022-12-24T01:01:42.014Z,546.00
2022-12-24T01:02:12.150Z,544.00
2022-12-24T01:02:42.262Z,544.00
2022-12-24T01:03:12.254Z,543.00
2022-12-24T01:03:42.136Z,542.00
2022-12-24T01:04:12.140Z,541.00
2022-12-24T01:04:42.259Z,543.00
2022-12-24T01:05:12.357Z,544.00
2022-12-24T01:05:42.364Z,545.00
2022-12-24T01:06:12.470Z,545.00
2022-12-24T01:06:42.473Z,544.00
2022-12-24T01:07:12.462Z,543.00
2022-12-24T01:07:42.610Z,545.00
2022-12-24T01:08:12.589Z,545.00
2022-12-24T01:08:42.590Z,544.00
2022-12-24T01:09:12.703Z,545.00
2022-12-24T01:09:42.826Z,544.00
2022-12-24T01:10:12.819Z,542.00
2022-12-24T01:10:42.960Z,542.00
2022-12-24T01:11:13.077Z,542.00
2022-12-24T01:11:43.172Z,541.00
2022-12-24T01:12:13.175Z,540.00
2022-12-24T01:12:43.182Z,540.00
2022-12-24T01:13:13.182Z,540.00
2022-12-24T01:13:43.193Z,540.00
2022-12-24T01:14:13.287Z,539.00
2022-12-24T01:14:43.403Z,540.00
2022-12-24T01:15:13.519Z,540.00
2022-12-24T01:15:43.709Z,540.00
2022-12-24T01:16:13.807Z,540.00
2022-12-24T01:16:43.796Z,538.00
2022-12-24T01:17:13.797Z,536.00
2022-12-24T01:17:43.913Z,534.00
2022-12-24T01:18:13.909Z,535.00
2022-12-24T01:18:43.931Z,536.00
2022-12-24T01:19:13.914Z,535.00
2022-12-24T01:19:43.934Z,534.00
2022-12-24T01:20:13.973Z,535.00
2022-12-24T01:20:43.985Z,536.00
2022-12-24T01:21:14.054Z,536.00
2022-12-24T01:21:44.067Z,536.00
2022-12-24T01:22:14.091Z,537.00
2022-12-24T01:22:44.170Z,538.00
2022-12-24T01:23:14.208Z,538.00
2022-12-24T01:23:44.246Z,539.00
2022-12-24T01:24:14.273Z,538.00
2022-12-24T01:24:44.303Z,538.00
2022-12-24T01:25:14.334Z,538.00
2022-12-24T01:25:44.360Z,535.00
2022-12-24T01:26:14.411Z,536.00
2022-12-24T01:26:44.422Z,536.00
2022-12-24T01:27:14.453Z,537.00
2022-12-24T01:27:44.497Z,535.00
2022-12-24T01:28:14.529Z,534.00
2022-12-24T01:28:44.562Z,535.00
2022-12-24T01:29:14.590Z,536.00
2022-12-24T01:29:44.627Z,536.00
2022-12-24T01:30:14.648Z,534.00
2022-12-24T01:30:44.738Z,534.00
2022-12-24T01:31:14.972Z,536.00
2022-12-24T01:31:44.886Z,537.00
2022-12-24T01:32:14.900Z,535.00
2022-12-24T01:32:44.937Z,535.00
2022-12-24T01:33:14.967Z,533.00
2022-12-24T01:33:44.997Z,534.00
2022-12-24T01:34:15.032Z,534.00
2022-12-24T01:34:45.066Z,533.00
2022-12-24T01:35:15.087Z,533.00
2022-12-24T01:35:45.128Z,535.00
2022-12-24T01:36:15.166Z,536.00
2022-12-24T01:36:45.197Z,539.00
2022-12-24T01:37:15.236Z,540.00
2022-12-24T01:37:45.264Z,538.00
2022-12-24T01:38:15.296Z,538.00
2022-12-24T01:38:45.342Z,537.00
2022-12-24T01:39:15.352Z,539.00
2022-12-24T01:39:45.380Z,539.00
2022-12-24T01:40:15.409Z,539.00
2022-12-24T01:40:45.445Z,539.00
2022-12-24T01:41:15.481Z,537.00
2022-12-24T01:41:45.534Z,538.00
2022-12-24T01:42:15.541Z,539.00
2022-12-24T01:42:45.572Z,539.00
2022-12-24T01:43:15.618Z,539.00
2022-12-24T01:43:45.679Z,539.00
2022-12-24T01:44:15.683Z,537.00
2022-12-24T01:44:45.704Z,538.00
2022-12-24T01:45:15.735Z,538.00
2022-12-24T01:45:45.815Z,537.00
2022-12-24T01:46:15.990Z,536.00
2022-12-24T01:46:46.004Z,535.00
2022-12-24T01:47:16.018Z,536.00
2022-12-24T01:47:46.046Z,538.00
2022-12-24T01:48:16.094Z,538.00
2022-12-24T01:48:46.117Z,539.00
2022-12-24T01:49:16.152Z,540.00
2022-12-24T01:49:46.190Z,539.00
2022-12-24T01:50:16.226Z,539.00
2022-12-24T01:50:46.262Z,537.00
2022-12-24T01:51:16.288Z,537.00
2022-12-24T01:51:46.341Z,537.00
2022-12-24T01:52:16.365Z,537.00
2022-12-24T01:52:46.385Z,537.00
2022-12-24T01:53:16.426Z,536.00
2022-12-24T01:53:46.473Z,537.00
2022-12-24T01:54:16.500Z,540.00
2022-12-24T01:54:46.530Z,540.00
2022-12-24T01:55:16.568Z,541.00
2022-12-24T01:55:46.633Z,541.00
2022-12-24T01:56:16.639Z,540.00
2022-12-24T01:56:46.682Z,540.00
2022-12-24T01:57:16.770Z,540.00
2022-12-24T01:57:46.769Z,538.00
2022-12-24T01:58:16.805Z,537.00
2022-12-24T01:58:46.831Z,536.00
2022-12-24T01:59:16.869Z,536.00
2022-12-24T01:59:46.896Z,538.00
2022-12-24T02:00:16.936Z,538.00
2022-12-24T02:00:46.960Z,540.00
2022-12-24T02:01:17.104Z,541.00
2022-12-24T02:01:47.175Z,539.00
2022-12-24T02:02:17.287Z,540.00
2022-12-24T02:02:47.361Z,540.00
2022-12-24T02:03:17.419Z,538.00
2022-12-24T02:03:47.399Z,537.00
2022-12-24T02:04:17.416Z,536.00
2022-12-24T02:04:47.431Z,537.00
2022-12-24T02:05:17.459Z,536.00
2022-12-24T02:05:47.504Z,534.00
2022-12-24T02:06:17.522Z,535.00
2022-12-24T02:06:47.560Z,535.00
2022-12-24T02:07:17.581Z,535.00
2022-12-24T02:07:47.670Z,536.00
2022-12-24T02:08:17.696Z,537.00
2022-12-24T02:08:47.725Z,534.00
2022-12-24T02:09:17.755Z,534.00
2022-12-24T02:09:47.768Z,536.00
2022-12-24T02:10:17.767Z,537.00
2022-12-24T02:10:47.875Z,536.00
2022-12-24T02:11:17.874Z,533.00
2022-12-24T02:11:47.873Z,532.00
2022-12-24T02:12:17.890Z,532.00
2022-12-24T02:12:48.088Z,530.00
2022-12-24T02:13:18.051Z,529.00
2022-12-24T02:13:48.169Z,530.00
2022-12-24T02:14:18.172Z,531.00
2022-12-24T02:14:48.162Z,530.00
2022-12-24T02:15:18.282Z,530.00
2022-12-24T02:15:48.304Z,530.00
2022-12-24T02:16:18.357Z,528.00
2022-12-24T02:16:48.367Z,529.00
2022-12-24T02:17:18.505Z,530.00
2022-12-24T02:17:48.509Z,529.00
2022-12-24T02:18:18.505Z,531.00
2022-12-24T02:18:48.631Z,531.00
2022-12-24T02:19:18.625Z,532.00
2022-12-24T02:19:48.645Z,531.00
2022-12-24T02:20:18.672Z,532.00
2022-12-24T02:20:48.709Z,531.00
2022-12-24T02:21:18.769Z,532.00
2022-12-24T02:21:48.786Z,533.00
2022-12-24T02:22:18.816Z,532.00
2022-12-24T02:22:48.876Z,531.00
2022-12-24T02:23:18.926Z,533.00
2022-12-24T02:23:48.940Z,533.00
2022-12-24T02:24:18.968Z,534.00
2022-12-24T02:24:49.006Z,533.00
2022-12-24T02:25:19.035Z,534.00
2022-12-24T02:25:49.064Z,533.00
2022-12-24T02:26:19.094Z,534.00
2022-12-24T02:26:49.122Z,535.00
2022-12-24T02:27:19.161Z,535.00
2022-12-24T02:27:49.198Z,535.00
2022-12-24T02:28:19.253Z,534.00
2022-12-24T02:28:49.261Z,532.00
2022-12-24T02:29:19.306Z,532.00
2022-12-24T02:29:49.328Z,533.00
2022-12-24T02:30:19.361Z,535.00
2022-12-24T02:30:49.477Z,536.00
2022-12-24T02:31:19.589Z,535.00
2022-12-24T02:31:49.659Z,536.00
2022-12-24T02:32:19.590Z,537.00
2022-12-24T02:32:49.665Z,536.00
2022-12-24T02:33:19.713Z,538.00
2022-12-24T02:33:49.739Z,537.00
2022-12-24T02:34:19.772Z,537.00
2022-12-24T02:34:49.800Z,538.00
2022-12-24T02:35:19.826Z,539.00
2022-12-24T02:35:49.863Z,540.00
2022-12-24T02:36:19.890Z,540.00
2022-12-24T02:36:49.926Z,538.00
2022-12-24T02:37:19.957Z,538.00
2022-12-24T02:37:49.992Z,538.00
2022-12-24T02:38:20.016Z,539.00
2022-12-24T02:38:50.097Z,539.00
2022-12-24T02:39:20.101Z,539.00
2022-12-24T02:39:50.149Z,539.00
2022-12-24T02:40:20.179Z,539.00
2022-12-24T02:40:50.217Z,539.00
2022-12-24T02:41:20.246Z,538.00
2022-12-24T02:41:50.341Z,538.00
2022-12-24T02:42:20.339Z,536.00
2022-12-24T02:42:50.375Z,535.00
2022-12-24T02:43:20.404Z,535.00
2022-12-24T02:43:50.459Z,533.00
2022-12-24T02:44:20.460Z,533.00
2022-12-24T02:44:50.495Z,533.00
2022-12-24T02:45:20.529Z,534.00
2022-12-24T02:45:56.906Z,533.00
2022-12-24T02:46:20.664Z,533.00
2022-12-24T02:46:50.886Z,532.00
2022-12-24T02:47:20.726Z,532.00
2022-12-24T02:47:50.757Z,532.00
2022-12-24T02:48:20.790Z,532.00
2022-12-24T02:48:50.844Z,534.00
2022-12-24T02:49:20.875Z,536.00
2022-12-24T02:49:50.904Z,537.00
2022-12-24T02:50:20.932Z,537.00
2022-12-24T02:50:50.955Z,536.00
2022-12-24T02:51:20.991Z,538.00
2022-12-24T02:51:51.029Z,537.00
2022-12-24T02:52:21.067Z,538.00
2022-12-24T02:52:51.108Z,537.00
2022-12-24T02:53:21.140Z,537.00
2022-12-24T02:53:51.175Z,536.00
2022-12-24T02:54:21.204Z,536.00
2022-12-24T02:54:51.236Z,535.00
2022-12-24T02:55:21.267Z,535.00
2022-12-24T02:55:51.308Z,534.00
2022-12-24T02:56:21.336Z,534.00
2022-12-24T02:56:51.364Z,531.00
2022-12-24T02:57:21.403Z,532.00
2022-12-24T02:57:51.441Z,531.00
2022-12-24T02:58:21.478Z,530.00
2022-12-24T02:58:51.507Z,530.00
2022-12-24T02:59:21.571Z,530.00
2022-12-24T02:59:51.628Z,529.00
2022-12-24T03:00:21.632Z,529.00
2022-12-24T03:00:51.709Z,529.00
2022-12-24T03:01:21.957Z,529.00
2022-12-24T03:01:51.891Z,529.00
2022-12-24T03:02:22.047Z,529.00
2022-12-24T03:02:52.011Z,528.00
2022-12-24T03:03:21.911Z,527.00
2022-12-24T03:03:51.949Z,526.00
2022-12-24T03:04:21.975Z,525.00
2022-12-24T03:04:52.004Z,526.00
2022-12-24T03:05:22.029Z,527.00
2022-12-24T03:05:52.064Z,527.00
2022-12-24T03:06:22.107Z,528.00
2022-12-24T03:06:52.132Z,527.00
2022-12-24T03:07:22.234Z,527.00
2022-12-24T03:07:52.282Z,525.00
2022-12-24T03:08:22.309Z,526.00
2022-12-24T03:08:52.342Z,527.00
2022-12-24T03:09:22.376Z,526.00
2022-12-24T03:09:52.373Z,527.00
2022-12-24T03:10:22.495Z,526.00
2022-12-24T03:10:52.609Z,527.00
2022-12-24T03:12:01.742Z,518.00
2022-12-24T03:12:31.822Z,525.00
2022-12-24T03:13:01.899Z,529.00
2022-12-24T03:13:31.991Z,532.00
2022-12-24T03:14:02.064Z,533.00
2022-12-24T03:14:32.162Z,535.00
2022-12-24T03:15:02.232Z,533.00
2022-12-24T03:15:32.397Z,534.00
2022-12-24T03:16:02.397Z,533.00
2022-12-24T03:16:32.414Z,532.00
2022-12-24T03:17:02.458Z,532.00
2022-12-24T03:17:32.543Z,534.00
2022-12-24T03:18:02.628Z,534.00
2022-12-24T03:18:32.698Z,531.00
2022-12-24T03:19:02.787Z,529.00
2022-12-24T03:19:32.874Z,530.00
2022-12-24T03:20:02.982Z,529.00
2022-12-24T03:20:33.038Z,528.00
2022-12-24T03:21:03.110Z,527.00
2022-12-24T03:21:33.190Z,527.00
2022-12-24T03:22:03.227Z,527.00
2022-12-24T03:22:33.211Z,527.00
2022-12-24T03:23:03.333Z,528.00
2022-12-24T03:23:33.325Z,528.00
2022-12-24T03:24:03.466Z,529.00
2022-12-24T03:24:33.559Z,529.00
2022-12-24T03:25:03.677Z,530.00
2022-12-24T03:25:33.803Z,531.00
2022-12-24T03:26:03.910Z,530.00
2022-12-24T03:26:33.906Z,530.00
2022-12-24T03:27:04.039Z,530.00
2022-12-24T03:27:34.035Z,531.00
2022-12-24T03:28:04.029Z,532.00
2022-12-24T03:28:34.132Z,531.00
2022-12-24T03:29:04.135Z,530.00
2022-12-24T03:29:34.130Z,529.00
2022-12-24T03:30:04.271Z,528.00
2022-12-24T03:30:34.244Z,526.00
2022-12-24T03:31:04.486Z,527.00
2022-12-24T03:31:34.409Z,527.00
2022-12-24T03:32:04.416Z,527.00
2022-12-24T03:32:34.411Z,525.00
2022-12-24T03:33:04.533Z,524.00
2022-12-24T03:33:34.524Z,523.00
2022-12-24T03:34:04.637Z,525.00
2022-12-24T03:34:34.759Z,526.00
2022-12-24T03:35:04.885Z,526.00
2022-12-24T03:35:34.985Z,525.00
2022-12-24T03:36:04.982Z,525.00
2022-12-24T03:36:35.095Z,525.00
2022-12-24T03:37:05.232Z,525.00
2022-12-24T03:37:35.243Z,528.00
2022-12-24T03:38:05.349Z,530.00
2022-12-24T03:38:35.366Z,531.00
2022-12-24T03:39:05.361Z,529.00
2022-12-24T03:39:35.470Z,529.00
2022-12-24T03:40:05.464Z,531.00
2022-12-24T03:40:35.467Z,533.00
2022-12-24T03:41:05.585Z,533.00
2022-12-24T03:41:35.696Z,534.00
2022-12-24T03:42:05.828Z,533.00
2022-12-24T03:42:35.822Z,533.00
2022-12-24T03:43:05.819Z,534.00
2022-12-24T03:43:35.816Z,535.00
2022-12-24T03:44:05.928Z,536.00
2022-12-24T03:44:35.936Z,537.00
2022-12-24T03:45:06.051Z,537.00
2022-12-24T03:45:36.147Z,538.00
2022-12-24T03:46:06.261Z,538.00
2022-12-24T03:46:36.147Z,537.00
2022-12-24T03:47:06.287Z,535.00
2022-12-24T03:47:36.293Z,537.00
2022-12-24T03:48:06.280Z,538.00
2022-12-24T03:48:36.277Z,537.00
2022-12-24T03:49:06.391Z,538.00
2022-12-24T03:49:36.509Z,540.00
2022-12-24T03:50:06.508Z,538.00
2022-12-24T03:50:36.626Z,536.00
2022-12-24T03:51:06.615Z,536.00
2022-12-24T03:51:36.618Z,534.00
2022-12-24T03:52:06.634Z,533.00
2022-12-24T03:52:36.620Z,532.00
2022-12-24T03:53:06.616Z,532.00
2022-12-24T03:53:36.614Z,533.00
2022-12-24T03:54:06.604Z,535.00
2022-12-24T03:54:36.722Z,536.00
2022-12-24T03:55:06.842Z,537.00
2022-12-24T03:55:36.954Z,539.00
2022-12-24T03:56:06.957Z,539.00
2022-12-24T03:56:36.948Z,540.00
2022-12-24T03:57:07.072Z,538.00
2022-12-24T03:57:37.084Z,536.00
2022-12-24T03:58:07.076Z,534.00
2022-12-24T03:58:37.183Z,532.00
2022-12-24T03:59:07.302Z,531.00
2022-12-24T03:59:37.295Z,529.00
2022-12-24T04:00:07.407Z,529.00
2022-12-24T04:00:37.479Z,529.00
2022-12-24T04:01:07.738Z,529.00
2022-12-24T04:01:37.662Z,529.00
2022-12-24T04:02:07.858Z,530.00
2022-12-24T04:02:37.819Z,530.00
2022-12-24T04:03:07.712Z,532.00
2022-12-24T04:03:37.739Z,532.00
2022-12-24T04:04:07.758Z,531.00
2022-12-24T04:04:37.890Z,530.00
2022-12-24T04:05:07.874Z,529.00
2022-12-24T04:05:37.876Z,529.00
2022-12-24T04:06:07.986Z,528.00
2022-12-24T04:06:38.103Z,530.00
2022-12-24T04:07:08.232Z,530.00
2022-12-24T04:07:38.223Z,529.00
2022-12-24T04:08:08.220Z,530.00
2022-12-24T04:08:38.229Z,529.00
2022-12-24T04:09:08.330Z,529.00
2022-12-24T04:09:38.333Z,529.00
2022-12-24T04:10:08.330Z,531.00
2022-12-24T04:10:38.442Z,532.00
2022-12-24T04:11:10.128Z,532.00
2022-12-24T04:11:38.565Z,534.00
2022-12-24T04:12:08.659Z,533.00
2022-12-24T04:12:38.726Z,533.00
2022-12-24T04:13:08.811Z,533.00
2022-12-24T04:13:38.885Z,532.00
2022-12-24T04:14:08.982Z,532.00
2022-12-24T04:14:39.048Z,532.00
2022-12-24T04:15:09.117Z,532.00
2022-12-24T04:15:39.194Z,532.00
2022-12-24T04:16:09.366Z,532.00
2022-12-24T04:16:39.468Z,531.00
2022-12-24T04:17:09.406Z,531.00
2022-12-24T04:17:39.489Z,533.00
2022-12-24T04:18:09.574Z,533.00
2022-12-24T04:18:39.654Z,530.00
2022-12-24T04:19:09.737Z,529.00
2022-12-24T04:19:39.820Z,530.00
2022-12-24T04:20:09.889Z,529.00
2022-12-24T04:20:39.975Z,529.00
2022-12-24T04:21:10.058Z,528.00
2022-12-24T04:21:40.162Z,527.00
2022-12-24T04:22:10.134Z,528.00
2022-12-24T04:22:40.129Z,527.00
2022-12-24T04:23:10.241Z,529.00
2022-12-24T04:23:40.243Z,529.00
2022-12-24T04:24:10.242Z,529.00
2022-12-24T04:24:40.354Z,531.00
2022-12-24T04:25:10.474Z,532.00
2022-12-24T04:25:40.468Z,533.00
2022-12-24T04:26:10.603Z,534.00
2022-12-24T04:26:40.590Z,535.00
2022-12-24T04:27:10.714Z,536.00
2022-12-24T04:27:40.708Z,534.00
2022-12-24T04:28:10.821Z,532.00
2022-12-24T04:28:40.947Z,531.00
2022-12-24T04:29:10.954Z,531.00
2022-12-24T04:29:41.046Z,531.00
2022-12-24T04:30:11.157Z,531.00
2022-12-24T04:30:41.163Z,531.00
2022-12-24T04:31:11.191Z,530.00
2022-12-24T04:31:41.233Z,530.00
2022-12-24T04:32:11.312Z,531.00
2022-12-24T04:32:41.236Z,529.00
2022-12-24T04:33:11.242Z,531.00
2022-12-24T04:33:41.239Z,531.00
2022-12-24T04:34:11.219Z,530.00
2022-12-24T04:34:41.337Z,529.00
2022-12-24T04:35:11.481Z,529.00
2022-12-24T04:35:41.574Z,528.00
2022-12-24T04:36:11.689Z,530.00
2022-12-24T04:36:41.826Z,530.00
2022-12-24T04:37:11.805Z,530.00
2022-12-24T04:37:41.918Z,532.00
2022-12-24T04:38:12.051Z,532.00
2022-12-24T04:38:42.046Z,531.00
2022-12-24T04:39:12.041Z,530.00
2022-12-24T04:39:42.195Z,528.00
2022-12-24T04:40:12.153Z,528.00
2022-12-24T04:40:42.168Z,527.00
2022-12-24T04:41:15.977Z,526.00
2022-12-24T04:41:42.280Z,526.00
2022-12-24T04:42:12.271Z,524.00
2022-12-24T04:42:42.413Z,524.00
2022-12-24T04:43:12.528Z,524.00
2022-12-24T04:43:42.510Z,524.00
2022-12-24T04:44:12.626Z,525.00
2022-12-24T04:44:42.741Z,528.00
2022-12-24T04:45:12.879Z,529.00
2022-12-24T04:45:43.024Z,530.00
2022-12-24T04:46:13.049Z,529.00
2022-12-24T04:46:43.039Z,529.00
2022-12-24T04:47:13.167Z,528.00
2022-12-24T04:47:43.271Z,531.00
2022-12-24T04:48:13.278Z,529.00
2022-12-24T04:48:43.276Z,526.00
2022-12-24T04:49:13.277Z,526.00
2022-12-24T04:49:43.387Z,525.00
2022-12-24T04:50:13.377Z,525.00
2022-12-24T04:50:43.372Z,525.00
2022-12-24T04:51:13.488Z,526.00
2022-12-24T04:51:43.624Z,529.00
2022-12-24T04:52:13.615Z,530.00
2022-12-24T04:52:43.594Z,530.00
2022-12-24T04:53:13.717Z,530.00
2022-12-24T04:53:43.710Z,531.00
2022-12-24T04:54:13.707Z,531.00
2022-12-24T04:54:43.819Z,533.00
2022-12-24T04:55:13.812Z,532.00
2022-12-24T04:55:43.933Z,532.00
2022-12-24T04:56:14.061Z,532.00
2022-12-24T04:56:44.167Z,532.00
2022-12-24T04:57:14.164Z,533.00
2022-12-24T04:57:47.289Z,534.00
2022-12-24T04:58:14.299Z,533.00
2022-12-24T04:58:44.291Z,530.00
2022-12-24T04:59:14.276Z,531.00
2022-12-24T04:59:44.398Z,531.00
2022-12-24T05:00:14.391Z,531.00
2022-12-24T05:00:44.516Z,531.00
2022-12-24T05:01:14.772Z,530.00
2022-12-24T05:01:44.821Z,530.00
2022-12-24T05:02:15.103Z,531.00
2022-12-24T05:02:45.081Z,531.00
2022-12-24T05:03:14.952Z,531.00
2022-12-24T05:03:44.951Z,531.00
2022-12-24T05:04:14.946Z,530.00
2022-12-24T05:04:45.061Z,532.00
2022-12-24T05:05:15.056Z,530.00
2022-12-24T05:05:45.185Z,532.00
2022-12-24T05:06:15.176Z,532.00
2022-12-24T05:06:45.291Z,534.00
2022-12-24T05:07:15.307Z,534.00
2022-12-24T05:07:45.286Z,532.00
2022-12-24T05:08:15.434Z,531.00
2022-12-24T05:08:45.411Z,530.00
2022-12-24T05:09:15.408Z,529.00
2022-12-24T05:09:45.511Z,526.00
2022-12-24T05:10:15.508Z,526.00
2022-12-24T05:10:45.634Z,527.00
2022-12-24T05:11:15.729Z,526.00
2022-12-24T05:11:45.717Z,525.00
2022-12-24T05:12:15.795Z,526.00
2022-12-24T05:12:45.870Z,526.00
2022-12-24T05:13:15.976Z,525.00
2022-12-24T05:13:47.427Z,525.00
2022-12-24T05:14:16.102Z,526.00
2022-12-24T05:14:46.182Z,527.00
2022-12-24T05:15:16.263Z,528.00
2022-12-24T05:15:46.344Z,527.00
2022-12-24T05:16:16.515Z,525.00
2022-12-24T05:16:46.544Z,522.00
2022-12-24T05:17:16.609Z,523.00
2022-12-24T05:17:46.634Z,522.00
2022-12-24T05:18:16.692Z,522.00
2022-12-24T05:18:46.789Z,523.00
2022-12-24T05:19:16.915Z,524.00
2022-12-24T05:19:46.965Z,523.00
2022-12-24T05:20:17.044Z,523.00
2022-12-24T05:20:47.115Z,522.00
2022-12-24T05:21:17.206Z,521.00
2022-12-24T05:21:47.308Z,522.00
2022-12-24T05:22:17.306Z,523.00
2022-12-24T05:22:47.300Z,522.00
2022-12-24T05:23:17.417Z,522.00
2022-12-24T05:23:47.408Z,521.00
2022-12-24T05:24:17.527Z,522.00
2022-12-24T05:24:47.643Z,523.00
2022-12-24T05:25:17.642Z,525.00
2022-12-24T05:25:47.826Z,525.00
2022-12-24T05:26:17.846Z,527.00
2022-12-24T05:26:47.838Z,526.00
2022-12-24T05:27:17.862Z,528.00
2022-12-24T05:27:51.343Z,529.00
2022-12-24T05:28:17.860Z,530.00
2022-12-24T05:28:47.875Z,530.00
2022-12-24T05:29:17.908Z,529.00
2022-12-24T05:29:47.890Z,528.00
2022-12-24T05:30:17.879Z,529.00
2022-12-24T05:30:47.972Z,530.00
2022-12-24T05:31:18.013Z,531.00
2022-12-24T05:31:48.060Z,530.00
2022-12-24T05:32:18.173Z,530.00
2022-12-24T05:32:48.289Z,531.00
2022-12-24T05:33:18.312Z,531.00
2022-12-24T05:33:48.412Z,531.00
2022-12-24T05:34:18.555Z,532.00
2022-12-24T05:34:48.558Z,534.00
2022-12-24T05:35:18.537Z,534.00
2022-12-24T05:35:48.647Z,532.00
2022-12-24T05:36:18.640Z,533.00
2022-12-24T05:36:48.763Z,532.00
2022-12-24T05:37:18.883Z,532.00
2022-12-24T05:37:48.999Z,532.00
2022-12-24T05:38:19.128Z,531.00
2022-12-24T05:38:49.121Z,529.00
2022-12-24T05:39:19.265Z,530.00
2022-12-24T05:39:49.255Z,529.00
2022-12-24T05:40:19.261Z,529.00
2022-12-24T05:40:49.353Z,530.00
2022-12-24T05:41:19.350Z,530.00
2022-12-24T05:41:49.522Z,529.00
2022-12-24T05:42:19.477Z,529.00
2022-12-24T05:42:49.597Z,529.00
2022-12-24T05:43:19.621Z,527.00
2022-12-24T05:43:49.617Z,527.00
2022-12-24T05:44:19.722Z,527.00
2022-12-24T05:44:49.830Z,528.00
2022-12-24T05:45:19.959Z,526.00
2022-12-24T05:45:50.091Z,526.00
2022-12-24T05:46:20.137Z,526.00
2022-12-24T05:46:50.155Z,525.00
2022-12-24T05:47:20.277Z,524.00
2022-12-24T05:47:50.265Z,524.00
2022-12-24T05:48:20.292Z,525.00
2022-12-24T05:48:50.393Z,524.00
2022-12-24T05:49:20.374Z,525.00
2022-12-24T05:49:50.372Z,526.00
2022-12-24T05:50:20.367Z,525.00
2022-12-24T05:50:50.485Z,526.00
2022-12-24T05:51:20.482Z,527.00
2022-12-24T05:51:50.603Z,527.00
2022-12-24T05:52:20.716Z,528.00
2022-12-24T05:52:50.836Z,528.00
2022-12-24T05:53:20.840Z,529.00
2022-12-24T05:53:50.855Z,530.00
2022-12-24T05:54:20.828Z,530.00
2022-12-24T05:54:50.824Z,531.00
2022-12-24T05:55:20.828Z,531.00
2022-12-24T05:55:50.954Z,530.00
2022-12-24T05:56:20.928Z,532.00
2022-12-24T05:56:50.930Z,530.00
2022-12-24T05:57:20.933Z,530.00
2022-12-24T05:57:50.921Z,530.00
2022-12-24T05:58:21.040Z,529.00
2022-12-24T05:58:51.104Z,527.00
2022-12-24T05:59:21.081Z,527.00
2022-12-24T05:59:51.075Z,527.00
2022-12-24T06:00:21.191Z,527.00
2022-12-24T06:00:51.190Z,526.00
2022-12-24T06:01:21.234Z,527.00
2022-12-24T06:01:51.270Z,527.00
2022-12-24T06:02:21.338Z,527.00
2022-12-24T06:02:51.435Z,527.00
2022-12-24T06:03:21.427Z,526.00
2022-12-24T06:03:51.599Z,528.00
2022-12-24T06:04:28.234Z,527.00
2022-12-24T06:04:51.657Z,528.00
2022-12-24T06:05:21.645Z,528.00
2022-12-24T06:05:51.627Z,529.00
2022-12-24T06:06:21.723Z,529.00
2022-12-24T06:06:51.693Z,528.00
2022-12-24T06:07:21.722Z,529.00
2022-12-24T06:07:51.807Z,530.00
2022-12-24T06:08:21.927Z,531.00
2022-12-24T06:08:51.956Z,530.00
2022-12-24T06:09:21.931Z,529.00
2022-12-24T06:09:52.047Z,528.00
2022-12-24T06:10:22.171Z,527.00
2022-12-24T06:10:52.165Z,528.00
2022-12-24T06:11:22.330Z,527.00
2022-12-24T06:11:52.389Z,527.00
2022-12-24T06:12:22.492Z,526.00
2022-12-24T06:12:52.566Z,527.00
2022-12-24T06:13:22.622Z,526.00
2022-12-24T06:13:52.703Z,526.00
2022-12-24T06:14:22.808Z,525.00
2022-12-24T06:14:52.874Z,524.00
2022-12-24T06:15:24.331Z,524.00